Sweet Sensation — 2CAY9 — position and weather

sailwx.info

Track history (hours):
 
Tides and Currents Weather Stations Pressure Air Temp Water Temp Dewpoint Dewpoint Depression Visibility Wind Speed Wind Dir Waves Ship Positions

Sweet Sensation

Last reported at 2018-Feb-17 17:41 UTC. Time now 2018-Feb-18 05:28 UTC.
Position N 17°11' W 061°48'.

Length 12 m.

Type: Sailing vessel. MMSI: 235071162.

Date/timePositionNaut miles runAvg speedWind from/ knotsBaromVisibWave heightAir tempDewpointWater temp
2018-Feb-17 17:41N 17°11' W 061°48'1 5.9
2018-Feb-17 17:30N 17°10' W 061°47'3 5.5
2018-Feb-17 17:00N 17°08' W 061°46'1 0.3
2018-Feb-17 13:40N 17°07' W 061°46'0 0.0
2018-Feb-17 13:31N 17°07' W 061°46'0 0.0
2018-Feb-17 13:01N 17°07' W 061°46'2 3.9
2018-Feb-17 12:31N 17°08' W 061°45'1 1.5
2018-Feb-17 11:58N 17°08' W 061°44'0 0.0
2018-Feb-15 15:11N 17°08' W 061°44'0 0.0
2018-Feb-15 14:59N 17°08' W 061°44'1 2.7
2018-Feb-15 14:30N 17°09' W 061°45'3 5.2
2018-Feb-15 14:00N 17°10' W 061°47'2 4.9
2018-Feb-15 13:30N 17°11' W 061°50'2 4.8
2018-Feb-15 13:00N 17°10' W 061°52'2 4.9
2018-Feb-15 12:30N 17°08' W 061°54'0 0.6
2018-Feb-15 12:00N 17°08' W 061°53'0 0.0
2018-Feb-14 21:48N 17°08' W 061°53'0 0.0
2018-Feb-14 16:44N 17°08' W 061°53'0 0.0
2018-Feb-14 16:20N 17°08' W 061°53'0 1.3
2018-Feb-14 16:00N 17°08' W 061°54'3 5.2
2018-Feb-14 15:29N 17°05' W 061°55'4 4.9
2018-Feb-14 14:36N 17°01' W 061°53'0 4.4
2018-Feb-14 14:30N 17°01' W 061°52'2 4.9
2018-Feb-14 14:00N 17°00' W 061°50'3 6.2
2018-Feb-14 13:30N 16°60' W 061°47'1 0.0
2018-Feb-13 00:50N 17°00' W 061°46'  
Track history (hours):
 
Tides and Currents Weather Stations Pressure Air Temp Water Temp Dewpoint Dewpoint Depression Visibility Wind Speed Wind Dir Waves Ship Positions

Sweet Sensation

Last reported at 2018-Feb-17 17:41 UTC. Time now 2018-Feb-18 05:28 UTC.
Position N 17°11' W 061°48'.

Length 12 m.

Type: Sailing vessel. MMSI: 235071162.

Date/timePositionNaut miles runAvg speedWind from/ knotsBaromVisibWave heightAir tempDewpointWater temp
2018-Feb-17 17:41N 17°11' W 061°48'1 5.9
2018-Feb-17 17:30N 17°10' W 061°47'3 5.5
2018-Feb-17 17:00N 17°08' W 061°46'1 0.3
2018-Feb-17 13:40N 17°07' W 061°46'0 0.0
2018-Feb-17 13:31N 17°07' W 061°46'0 0.0
2018-Feb-17 13:01N 17°07' W 061°46'2 3.9
2018-Feb-17 12:31N 17°08' W 061°45'1 1.5
2018-Feb-17 11:58N 17°08' W 061°44'0 0.0
2018-Feb-15 15:11N 17°08' W 061°44'0 0.0
2018-Feb-15 14:59N 17°08' W 061°44'1 2.7
2018-Feb-15 14:30N 17°09' W 061°45'3 5.2
2018-Feb-15 14:00N 17°10' W 061°47'2 4.9
2018-Feb-15 13:30N 17°11' W 061°50'2 4.8
2018-Feb-15 13:00N 17°10' W 061°52'2 4.9
2018-Feb-15 12:30N 17°08' W 061°54'0 0.6
2018-Feb-15 12:00N 17°08' W 061°53'0 0.0
2018-Feb-14 21:48N 17°08' W 061°53'0 0.0
2018-Feb-14 16:44N 17°08' W 061°53'0 0.0
2018-Feb-14 16:20N 17°08' W 061°53'0 1.3
2018-Feb-14 16:00N 17°08' W 061°54'3 5.2
2018-Feb-14 15:29N 17°05' W 061°55'4 4.9
2018-Feb-14 14:36N 17°01' W 061°53'0 4.4
2018-Feb-14 14:30N 17°01' W 061°52'2 4.9
2018-Feb-14 14:00N 17°00' W 061°50'3 6.2
2018-Feb-14 13:30N 16°60' W 061°47'1 0.0
2018-Feb-13 00:50N 17°00' W 061°46'  

Dump ship's entire track history